Time;durP1;ratioP1;P1;durP2;ratioP2;P2;SDS_P1;SDS_P2;PMS_P1;PMS_P2;Temp;Humidity;BMP_temperature;BMP_pressure;BME280_temperature;BME280_humidity;BME280_pressure;Samples;Min_cycle;Max_cycle;Signal;HPM_P1;HPM_P2
2021/05/12 00:01:56;;;;;;;7.78;4.75;;;12.40;99.90;;;;;;4971770;28;20400;-58
2021/05/12 00:04:22;;;;;;;7.80;4.20;;;12.40;99.90;;;;;;4971621;28;20419;-50
2021/05/12 00:06:47;;;;;;;8.15;4.75;;;12.30;99.90;;;;;;4972311;28;20424;-49
2021/05/12 00:09:14;;;;;;;10.73;5.20;;;12.30;99.90;;;;;;4971119;28;20439;-50
2021/05/12 00:11:39;;;;;;;9.80;5.63;;;12.30;99.90;;;;;;4972014;28;20392;-50
2021/05/12 00:14:05;;;;;;;8.73;5.45;;;12.30;99.90;;;;;;4971218;28;20392;-50
2021/05/12 00:16:31;;;;;;;9.13;5.90;;;12.20;99.90;;;;;;4971888;28;20451;-49
2021/05/12 00:18:57;;;;;;;9.50;6.30;;;12.30;99.90;;;;;;4971801;28;20376;-58
2021/05/12 00:21:37;;;;;;;11.70;6.70;;;12.30;99.90;;;;;;4971446;28;20813;-50
2021/05/12 00:24:03;;;;;;;10.88;7.13;;;12.20;99.90;;;;;;4971124;28;20443;-50
2021/05/12 00:26:38;;;;;;;12.13;7.40;;;12.20;99.90;;;;;;4971890;28;20480;-50
2021/05/12 00:29:07;;;;;;;11.35;6.57;;;12.30;99.90;;;;;;4970895;28;20428;-50
2021/05/12 00:31:32;;;;;;;10.70;5.87;;;12.30;99.90;;;;;;4971716;28;20392;-50
2021/05/12 00:33:59;;;;;;;8.95;6.03;;;12.10;99.90;;;;;;4971314;28;20451;-58
2021/05/12 00:36:25;;;;;;;9.02;5.63;;;12.00;99.90;;;;;;4971032;28;20389;-50
2021/05/12 00:38:51;;;;;;;8.57;5.20;;;12.00;99.90;;;;;;4971819;28;20371;-50
2021/05/12 00:41:16;;;;;;;9.37;5.00;;;12.00;99.90;;;;;;4970648;28;20434;-50
2021/05/12 00:43:42;;;;;;;7.90;5.03;;;12.10;99.90;;;;;;4971209;28;20416;-49
2021/05/12 00:46:08;;;;;;;8.60;4.70;;;12.00;99.90;;;;;;4970803;28;20392;-51
2021/05/12 00:48:34;;;;;;;7.50;4.28;;;11.90;99.90;;;;;;4971634;28;20404;-49
2021/05/12 00:51:00;;;;;;;7.45;4.47;;;11.90;99.90;;;;;;4970602;28;20392;-59
2021/05/12 00:53:26;;;;;;;7.32;4.88;;;11.90;99.90;;;;;;4971335;28;20392;-50
2021/05/12 00:55:52;;;;;;;9.07;4.67;;;11.90;99.90;;;;;;4971124;28;20697;-50
2021/05/12 00:58:17;;;;;;;7.97;4.40;;;11.90;99.90;;;;;;4970552;28;20467;-50
2021/05/12 01:00:44;;;;;;;7.10;4.17;;;11.80;99.90;;;;;;4971144;28;20479;-50
2021/05/12 01:03:09;;;;;;;6.80;4.30;;;11.70;99.90;;;;;;4970287;28;20412;-52
2021/05/12 01:05:35;;;;;;;7.10;4.40;;;11.70;99.90;;;;;;4971233;28;20934;-50
2021/05/12 01:08:05;;;;;;;6.07;4.17;;;11.60;99.90;;;;;;4970906;28;20877;-59
2021/05/12 01:10:36;;;;;;;6.70;3.63;;;11.70;99.90;;;;;;4966741;28;20391;-50
2021/05/12 01:13:02;;;;;;;6.20;3.40;;;11.60;99.90;;;;;;4970156;28;21171;-56
2021/05/12 01:15:28;;;;;;;6.55;3.40;;;11.60;99.90;;;;;;4971073;28;20380;-51
2021/05/12 01:18:10;;;;;;;5.53;3.13;;;11.60;99.90;;;;;;4971257;28;20407;-50
2021/05/12 01:20:59;;;;;;;5.80;3.15;;;11.60;99.90;;;;;;4971057;28;20395;-49
2021/05/12 01:23:31;;;;;;;5.90;3.25;;;11.60;99.90;;;;;;4970763;28;20416;-50
2021/05/12 01:25:58;;;;;;;5.10;3.30;;;11.60;99.90;;;;;;4971069;28;20380;-50
2021/05/12 01:28:26;;;;;;;6.07;3.47;;;11.50;99.90;;;;;;4970283;28;20423;-49
2021/05/12 01:30:57;;;;;;;6.53;3.95;;;11.50;99.90;;;;;;4971450;28;20860;-50
2021/05/12 01:33:22;;;;;;;7.45;4.30;;;11.60;99.90;;;;;;4952683;28;20763;-49
2021/05/12 01:35:49;;;;;;;8.60;4.20;;;11.70;99.90;;;;;;4953742;28;20423;-50
2021/05/12 01:38:15;;;;;;;8.15;4.47;;;11.60;99.90;;;;;;4969989;28;20380;-49
2021/05/12 01:40:41;;;;;;;6.50;4.20;;;11.60;99.90;;;;;;4970321;28;20423;-50
2021/05/12 01:43:07;;;;;;;8.60;4.60;;;11.60;99.90;;;;;;4970170;28;20426;-50
2021/05/12 01:45:33;;;;;;;8.07;4.20;;;11.50;99.90;;;;;;4971022;28;20471;-50
2021/05/12 01:48:00;;;;;;;7.18;4.70;;;11.50;99.90;;;;;;4971529;28;20424;-58
2021/05/12 01:50:25;;;;;;;7.32;4.70;;;11.50;99.90;;;;;;4974124;28;20832;-50
2021/05/12 01:52:51;;;;;;;9.52;4.60;;;11.50;99.90;;;;;;4974685;28;20424;-50
2021/05/12 01:55:17;;;;;;;8.73;5.47;;;11.50;99.90;;;;;;4973488;28;20872;-50
2021/05/12 01:57:44;;;;;;;8.20;4.50;;;11.40;99.90;;;;;;4974528;28;20529;-50
2021/05/12 02:00:29;;;;;;;9.32;5.20;;;11.30;99.90;;;;;;4973680;28;20456;-51
2021/05/12 02:02:55;;;;;;;7.85;5.28;;;11.30;99.90;;;;;;4974197;28;20412;-50
2021/05/12 02:05:22;;;;;;;8.77;5.87;;;11.40;99.90;;;;;;4973480;28;20391;-50
2021/05/12 02:07:50;;;;;;;8.73;5.10;;;11.50;99.90;;;;;;4973998;28;20872;-49
2021/05/12 02:10:16;;;;;;;10.00;5.47;;;11.50;99.90;;;;;;4973661;28;20388;-49
2021/05/12 02:12:42;;;;;;;10.82;5.28;;;11.40;99.90;;;;;;4974105;28;20852;-49
2021/05/12 02:15:11;;;;;;;9.93;5.38;;;12.40;99.90;;;;;;4973333;28;20392;-49
2021/05/12 02:17:37;;;;;;;9.17;5.40;;;11.30;99.90;;;;;;4974036;28;20438;-49
2021/05/12 02:20:05;;;;;;;9.30;5.60;;;11.30;99.90;;;;;;4973353;28;20392;-58
2021/05/12 02:22:31;;;;;;;16.92;6.13;;;11.20;99.90;;;;;;4973636;28;20419;-49
2021/05/12 02:24:56;;;;;;;9.30;5.97;;;11.20;99.90;;;;;;4973686;28;20880;-50
2021/05/12 02:27:22;;;;;;;8.55;5.20;;;11.40;99.90;;;;;;4972810;28;20391;-49
2021/05/12 02:29:48;;;;;;;10.23;5.77;;;11.20;99.90;;;;;;4973828;28;20424;-49
2021/05/12 02:32:13;;;;;;;9.60;5.50;;;11.20;99.90;;;;;;4972746;28;20472;-49
2021/05/12 02:34:39;;;;;;;11.57;5.47;;;11.20;99.90;;;;;;4973567;28;20427;-49
2021/05/12 02:37:04;;;;;;;9.68;6.20;;;11.20;99.90;;;;;;4972842;28;20467;-50
2021/05/12 02:39:30;;;;;;;9.50;5.77;;;11.20;99.90;;;;;;4956406;28;20442;-49
2021/05/12 02:41:56;;;;;;;12.00;6.27;;;11.30;99.90;;;;;;4956215;28;20392;-49
2021/05/12 02:44:22;;;;;;;10.45;6.28;;;11.30;99.90;;;;;;4972617;28;21034;-49
2021/05/12 02:46:48;;;;;;;10.23;6.20;;;11.30;99.90;;;;;;4973324;28;20900;-49
2021/05/12 02:49:13;;;;;;;11.40;6.20;;;11.30;99.90;;;;;;4972385;28;20479;-49
2021/05/12 02:51:40;;;;;;;11.80;7.10;;;11.20;99.90;;;;;;4973285;28;20600;-49
2021/05/12 02:54:06;;;;;;;11.32;6.90;;;11.30;99.90;;;;;;4972335;28;20911;-50
2021/05/12 02:56:31;;;;;;;10.90;6.70;;;11.30;99.90;;;;;;4973002;28;20392;-49
2021/05/12 02:58:57;;;;;;;14.50;7.17;;;11.30;99.90;;;;;;4972766;28;20490;-49
2021/05/12 03:01:22;;;;;;;10.70;6.70;;;11.20;99.90;;;;;;4972306;28;20996;-49
2021/05/12 03:03:48;;;;;;;12.70;7.50;;;11.30;99.90;;;;;;4973160;28;20776;-49
2021/05/12 03:06:14;;;;;;;11.50;6.90;;;11.30;99.90;;;;;;4972093;28;20395;-49
2021/05/12 03:08:39;;;;;;;10.93;7.00;;;11.20;99.90;;;;;;4972938;28;20443;-49
2021/05/12 03:11:05;;;;;;;14.20;7.77;;;11.30;99.90;;;;;;4972611;28;20391;-50
2021/05/12 03:13:30;;;;;;;14.13;7.50;;;11.30;99.90;;;;;;4972971;28;20388;-49
2021/05/12 03:15:56;;;;;;;11.07;7.90;;;11.30;99.90;;;;;;4973105;28;20395;-49
2021/05/12 03:18:22;;;;;;;12.27;7.70;;;11.40;99.90;;;;;;4972030;28;20985;-49
2021/05/12 03:20:48;;;;;;;15.17;8.30;;;11.40;99.90;;;;;;4972740;28;20387;-49
2021/05/12 03:23:13;;;;;;;12.52;8.20;;;11.30;99.90;;;;;;4971964;28;20443;-50
2021/05/12 03:25:39;;;;;;;16.73;7.80;;;11.40;99.90;;;;;;4972859;28;20385;-49
2021/05/12 03:28:05;;;;;;;15.85;8.77;;;11.40;99.90;;;;;;4972026;28;20420;-58
2021/05/12 03:30:37;;;;;;;14.15;8.40;;;11.40;99.90;;;;;;4969524;28;20394;-49
2021/05/12 03:33:05;;;;;;;16.75;9.10;;;11.40;99.90;;;;;;4960966;28;20398;-59
2021/05/12 03:35:31;;;;;;;16.15;8.93;;;11.50;99.90;;;;;;4962997;28;20400;-49
2021/05/12 03:37:57;;;;;;;18.23;9.80;;;11.40;99.90;;;;;;4953316;29;20892;-49
2021/05/12 03:40:23;;;;;;;18.27;9.68;;;11.30;99.90;;;;;;4952196;29;20382;-49
2021/05/12 03:42:50;;;;;;;16.95;10.20;;;11.40;99.90;;;;;;4953082;29;20465;-49
2021/05/12 03:45:16;;;;;;;15.32;9.93;;;11.40;99.90;;;;;;4952368;29;20429;-49
2021/05/12 03:47:42;;;;;;;16.70;10.02;;;11.20;99.90;;;;;;4953006;29;20402;-49
2021/05/12 03:50:09;;;;;;;15.10;9.07;;;11.20;99.90;;;;;;4952588;29;20405;-49
2021/05/12 03:52:35;;;;;;;17.23;10.10;;;11.30;99.90;;;;;;4952690;29;20932;-50
2021/05/12 03:55:01;;;;;;;16.63;9.93;;;11.30;99.90;;;;;;4953145;29;20465;-49
2021/05/12 03:57:27;;;;;;;18.77;10.70;;;11.30;99.90;;;;;;4952354;29;20481;-49
2021/05/12 03:59:52;;;;;;;17.08;9.45;;;11.30;99.90;;;;;;4952963;29;20389;-49
2021/05/12 04:02:18;;;;;;;17.40;9.80;;;11.30;99.90;;;;;;4951781;29;20872;-49
2021/05/12 04:04:44;;;;;;;17.35;9.93;;;11.30;99.90;;;;;;4952737;29;20394;-49
2021/05/12 04:07:09;;;;;;;20.53;10.90;;;11.30;99.90;;;;;;4952251;29;20882;-49
2021/05/12 04:09:35;;;;;;;19.85;11.20;;;11.30;99.90;;;;;;4952839;29;20750;-49
2021/05/12 04:12:01;;;;;;;20.67;9.63;;;11.40;99.90;;;;;;4951894;28;20473;-49
2021/05/12 04:14:27;;;;;;;17.90;10.45;;;11.30;99.90;;;;;;4951678;29;20878;-49
2021/05/12 04:16:53;;;;;;;15.82;9.60;;;11.30;99.90;;;;;;4952476;29;20386;-49
2021/05/12 04:19:19;;;;;;;16.73;9.77;;;11.30;99.90;;;;;;4951746;29;20385;-49
2021/05/12 04:21:45;;;;;;;19.30;10.35;;;11.40;99.90;;;;;;4935384;29;20789;-49
2021/05/12 04:24:11;;;;;;;17.27;9.65;;;11.40;99.90;;;;;;4951492;29;20486;-49
2021/05/12 04:26:36;;;;;;;15.60;10.40;;;11.50;99.90;;;;;;4952112;29;20393;-49
2021/05/12 04:29:03;;;;;;;18.90;9.33;;;11.50;99.90;;;;;;4952340;29;20433;-49
2021/05/12 04:31:29;;;;;;;17.58;9.50;;;11.50;99.90;;;;;;4951978;29;20398;-49
2021/05/12 04:33:54;;;;;;;18.30;9.33;;;11.50;99.90;;;;;;4952056;29;20742;-51
2021/05/12 04:36:20;;;;;;;14.07;9.25;;;11.60;99.90;;;;;;4951514;29;20389;-49
2021/05/12 04:38:46;;;;;;;17.30;9.73;;;11.40;99.90;;;;;;4952141;29;20882;-49
2021/05/12 04:41:11;;;;;;;13.27;8.57;;;11.50;99.90;;;;;;4951043;29;20477;-50
2021/05/12 04:43:37;;;;;;;19.03;9.63;;;11.50;99.90;;;;;;4952108;29;20422;-49
2021/05/12 04:46:03;;;;;;;18.03;9.90;;;11.40;99.90;;;;;;4951613;29;20430;-58
2021/05/12 04:48:31;;;;;;;18.33;9.73;;;11.40;99.90;;;;;;4951525;29;20481;-49
2021/05/12 04:50:58;;;;;;;14.63;8.80;;;11.40;99.90;;;;;;4952368;29;20394;-49
2021/05/12 04:53:24;;;;;;;15.15;8.82;;;11.40;99.90;;;;;;4956937;28;20402;-49
2021/05/12 04:55:50;;;;;;;15.00;8.70;;;11.40;99.90;;;;;;4968438;28;20392;-57
2021/05/12 04:58:15;;;;;;;15.80;9.30;;;11.50;99.90;;;;;;4970659;28;20423;-50
2021/05/12 05:00:41;;;;;;;17.23;8.55;;;11.50;99.90;;;;;;4953851;28;20890;-49
2021/05/12 05:03:07;;;;;;;15.33;7.67;;;11.30;99.90;;;;;;4970360;28;20783;-53
2021/05/12 05:05:33;;;;;;;12.75;8.00;;;11.30;99.90;;;;;;4971102;28;20396;-49
2021/05/12 05:07:59;;;;;;;12.57;7.10;;;11.40;99.90;;;;;;4969724;28;20384;-49
2021/05/12 05:10:25;;;;;;;14.30;7.13;;;11.30;99.90;;;;;;4970474;28;20486;-52
2021/05/12 05:12:50;;;;;;;12.25;6.75;;;11.30;99.90;;;;;;4971127;28;20860;-54
2021/05/12 05:15:17;;;;;;;12.20;6.60;;;11.30;99.90;;;;;;4970246;28;20387;-55
2021/05/12 05:17:43;;;;;;;11.50;6.38;;;11.30;99.90;;;;;;4966480;28;20423;-54
2021/05/12 05:20:13;;;;;;;12.75;6.05;;;11.30;99.90;;;;;;4966284;28;20384;-54
2021/05/12 05:22:39;;;;;;;12.95;5.88;;;11.30;99.90;;;;;;4967890;28;20532;-54
2021/05/12 05:25:06;;;;;;;11.30;5.57;;;11.40;99.90;;;;;;4965443;28;20922;-61
2021/05/12 05:27:31;;;;;;;10.90;5.57;;;11.40;99.90;;;;;;4964210;28;20429;-53
2021/05/12 05:29:57;;;;;;;9.63;5.82;;;11.30;99.90;;;;;;4964422;28;20415;-52
2021/05/12 05:32:23;;;;;;;11.48;5.70;;;11.40;99.90;;;;;;4965685;28;20400;-51
2021/05/12 05:34:49;;;;;;;10.45;6.07;;;11.40;99.90;;;;;;4966543;28;20395;-54
2021/05/12 05:37:15;;;;;;;11.15;6.20;;;11.50;99.90;;;;;;4973797;28;20390;-51
2021/05/12 05:39:41;;;;;;;12.70;6.10;;;11.50;99.90;;;;;;4974762;28;20886;-50
2021/05/12 05:42:09;;;;;;;10.25;5.82;;;11.50;99.90;;;;;;4974343;28;20384;-58
2021/05/12 05:44:35;;;;;;;10.55;5.82;;;11.60;99.90;;;;;;4974448;28;20424;-49
2021/05/12 05:47:02;;;;;;;10.15;5.65;;;11.60;99.90;;;;;;4974666;28;20395;-56
2021/05/12 05:49:28;;;;;;;11.13;5.77;;;11.60;99.90;;;;;;4973862;28;20384;-50
2021/05/12 05:51:54;;;;;;;11.13;5.73;;;11.50;99.90;;;;;;4970589;28;20429;-52
2021/05/12 05:54:20;;;;;;;12.60;6.40;;;11.50;99.90;;;;;;4959536;28;20409;-49
2021/05/12 05:56:46;;;;;;;17.17;6.38;;;11.50;99.90;;;;;;4971147;28;20864;-49
2021/05/12 05:59:12;;;;;;;9.77;5.70;;;11.50;99.90;;;;;;4953729;29;20540;-50
2021/05/12 06:01:37;;;;;;;10.27;6.07;;;11.50;99.90;;;;;;4960235;28;20407;-49
2021/05/12 06:04:03;;;;;;;13.00;6.35;;;11.40;99.90;;;;;;4973715;28;20503;-50
2021/05/12 06:06:29;;;;;;;10.50;5.40;;;11.40;99.90;;;;;;4973394;28;20383;-49
2021/05/12 06:08:55;;;;;;;13.85;5.93;;;11.40;99.90;;;;;;4973735;28;20384;-49
2021/05/12 06:11:21;;;;;;;10.75;5.30;;;11.40;99.90;;;;;;4957103;28;20390;-49
2021/05/12 06:13:49;;;;;;;12.80;5.43;;;11.40;99.90;;;;;;4954258;29;20397;-49
2021/05/12 06:16:16;;;;;;;9.02;5.18;;;11.30;99.90;;;;;;4953144;29;20449;-51
2021/05/12 06:18:42;;;;;;;8.00;5.05;;;11.20;99.90;;;;;;4953847;29;20405;-49
2021/05/12 06:21:07;;;;;;;10.80;5.00;;;11.20;99.90;;;;;;4953544;29;20378;-58
2021/05/12 06:23:33;;;;;;;8.70;4.90;;;11.30;99.90;;;;;;4953837;29;20413;-49
2021/05/12 06:25:59;;;;;;;9.18;5.13;;;11.30;99.90;;;;;;4954204;29;20390;-50
2021/05/12 06:28:25;;;;;;;9.60;5.10;;;11.40;99.90;;;;;;4968098;28;20470;-49
2021/05/12 06:30:51;;;;;;;10.23;5.67;;;11.40;99.90;;;;;;4973446;28;20393;-49
2021/05/12 06:33:17;;;;;;;14.10;5.03;;;11.40;99.90;;;;;;4971562;28;20396;-50
2021/05/12 06:35:43;;;;;;;11.80;4.85;;;11.60;99.90;;;;;;4973180;28;20392;-49
2021/05/12 06:38:09;;;;;;;10.02;5.00;;;11.40;99.90;;;;;;4972308;28;20427;-51
2021/05/12 06:40:37;;;;;;;10.35;4.90;;;11.50;99.90;;;;;;4973147;28;20464;-49
2021/05/12 06:43:04;;;;;;;8.57;4.97;;;11.50;99.90;;;;;;4973299;28;20467;-49
2021/05/12 06:45:30;;;;;;;9.30;5.03;;;11.50;99.90;;;;;;4972487;28;20396;-50
2021/05/12 06:47:56;;;;;;;12.20;4.97;;;11.60;99.90;;;;;;4972776;28;20385;-49
2021/05/12 06:50:23;;;;;;;11.23;5.70;;;11.50;99.90;;;;;;4972069;28;20483;-49
2021/05/12 06:52:56;;;;;;;10.50;4.90;;;11.50;99.90;;;;;;4972900;28;20399;-49
2021/05/12 06:55:22;;;;;;;10.25;5.25;;;11.40;99.90;;;;;;4972156;28;20384;-49
2021/05/12 06:57:48;;;;;;;8.90;5.20;;;11.50;99.90;;;;;;4972635;28;20423;-50
2021/05/12 07:00:16;;;;;;;8.00;4.73;;;11.50;99.90;;;;;;4971773;28;20396;-50
2021/05/12 07:02:42;;;;;;;8.27;4.60;;;11.50;99.90;;;;;;4955777;28;20881;-49
2021/05/12 07:05:09;;;;;;;9.20;4.80;;;11.40;99.90;;;;;;4952731;29;20406;-58
2021/05/12 07:07:35;;;;;;;8.73;4.73;;;11.50;99.90;;;;;;4952847;29;20407;-49
2021/05/12 07:10:01;;;;;;;9.20;4.57;;;11.40;99.90;;;;;;4935858;29;20397;-49
2021/05/12 07:12:26;;;;;;;8.98;4.40;;;11.30;99.90;;;;;;4952481;29;20382;-49
2021/05/12 07:14:52;;;;;;;8.00;4.33;;;11.60;99.90;;;;;;4953037;29;20730;-49
2021/05/12 07:17:18;;;;;;;9.95;4.68;;;11.70;99.90;;;;;;4952250;29;20397;-50
2021/05/12 07:19:43;;;;;;;10.07;4.57;;;11.60;99.90;;;;;;4952524;29;20711;-49
2021/05/12 07:22:09;;;;;;;7.97;4.30;;;11.60;99.90;;;;;;4952399;29;20411;-49
2021/05/12 07:24:35;;;;;;;9.35;4.20;;;11.60;99.90;;;;;;4952394;29;20773;-49
2021/05/12 07:27:01;;;;;;;8.60;4.50;;;11.60;99.90;;;;;;4952536;29;20390;-49
2021/05/12 07:29:26;;;;;;;7.43;4.10;;;11.50;99.90;;;;;;4951441;29;20952;-50
2021/05/12 07:31:53;;;;;;;9.70;4.18;;;11.60;99.90;;;;;;4952546;29;20390;-49
2021/05/12 07:34:19;;;;;;;11.50;4.70;;;11.40;99.90;;;;;;4952163;29;20386;-49
2021/05/12 07:36:44;;;;;;;7.32;4.20;;;11.50;99.90;;;;;;4952779;29;20382;-49
2021/05/12 07:39:10;;;;;;;10.20;4.43;;;11.40;99.90;;;;;;4952076;29;20459;-57
2021/05/12 07:41:36;;;;;;;7.97;4.30;;;11.40;99.90;;;;;;4952342;29;20389;-49
2021/05/12 07:44:03;;;;;;;9.25;4.72;;;11.40;99.90;;;;;;4952457;29;20424;-48
2021/05/12 07:46:29;;;;;;;11.40;4.80;;;11.30;99.90;;;;;;4950562;28;20397;-49
2021/05/12 07:48:55;;;;;;;9.15;4.18;;;11.40;99.90;;;;;;4952901;29;20398;-49
2021/05/12 07:51:22;;;;;;;7.30;4.10;;;11.40;99.90;;;;;;4951828;29;20411;-49
2021/05/12 07:53:47;;;;;;;8.52;3.67;;;11.40;99.90;;;;;;4952185;29;20707;-50
2021/05/12 07:56:13;;;;;;;9.43;3.75;;;11.40;99.90;;;;;;4951221;29;20885;-49
2021/05/12 07:58:39;;;;;;;7.30;4.03;;;11.50;99.90;;;;;;4952039;29;20787;-49
2021/05/12 08:01:25;;;;;;;7.97;3.53;;;11.60;99.90;;;;;;4955564;28;20392;-49
2021/05/12 08:03:50;;;;;;;7.80;3.40;;;11.60;99.90;;;;;;4971512;28;20916;-49
2021/05/12 08:06:16;;;;;;;8.25;3.95;;;11.70;99.90;;;;;;4970036;28;20400;-52
2021/05/12 08:08:41;;;;;;;7.67;3.83;;;11.60;99.90;;;;;;4971377;28;20381;-49
2021/05/12 08:11:07;;;;;;;7.13;4.00;;;11.60;99.90;;;;;;4970685;28;20813;-58
2021/05/12 08:13:33;;;;;;;9.07;3.60;;;11.70;99.90;;;;;;4970204;28;20380;-49
2021/05/12 08:15:59;;;;;;;6.40;3.65;;;11.70;99.90;;;;;;4970744;28;20907;-49
2021/05/12 08:18:25;;;;;;;9.40;3.80;;;11.70;99.90;;;;;;4970015;28;20472;-48
2021/05/12 08:20:56;;;;;;;8.97;3.63;;;11.80;99.90;;;;;;4970942;28;20467;-49
2021/05/12 08:23:22;;;;;;;10.07;3.90;;;11.70;99.90;;;;;;4970415;28;20531;-49
2021/05/12 08:25:48;;;;;;;10.15;3.80;;;11.80;99.90;;;;;;4970250;28;20396;-49
2021/05/12 08:28:14;;;;;;;8.33;4.17;;;11.90;99.90;;;;;;4970249;28;20424;-49
2021/05/12 08:30:45;;;;;;;9.75;3.80;;;12.10;99.90;;;;;;4970652;28;20392;-50
2021/05/12 08:33:12;;;;;;;7.55;3.60;;;12.00;99.90;;;;;;4971003;28;20864;-58
2021/05/12 08:35:41;;;;;;;10.52;4.45;;;12.00;99.90;;;;;;4970763;28;20400;-49
2021/05/12 08:38:09;;;;;;;9.43;3.80;;;12.10;99.90;;;;;;4970956;28;20395;-52
2021/05/12 08:40:35;;;;;;;7.90;4.07;;;12.20;99.90;;;;;;4970597;28;20392;-50
2021/05/12 08:43:04;;;;;;;8.32;3.40;;;12.30;99.90;;;;;;4971214;28;20445;-49
2021/05/12 08:45:30;;;;;;;7.25;3.88;;;12.30;99.90;;;;;;4969896;28;20868;-49
2021/05/12 08:47:57;;;;;;;8.77;4.20;;;12.00;99.90;;;;;;4971014;28;20427;-49
2021/05/12 08:50:26;;;;;;;7.80;3.97;;;12.00;99.90;;;;;;4970072;28;20856;-50
2021/05/12 08:52:53;;;;;;;7.50;3.40;;;12.10;99.90;;;;;;4970751;28;20490;-49
2021/05/12 08:55:20;;;;;;;9.80;4.80;;;12.10;99.90;;;;;;4969949;28;20395;-52
2021/05/12 08:57:46;;;;;;;8.13;3.42;;;12.20;99.90;;;;;;4970247;28;20779;-49
2021/05/12 09:00:12;;;;;;;8.48;3.70;;;11.90;99.90;;;;;;4969602;28;20392;-60
2021/05/12 09:02:39;;;;;;;11.13;3.88;;;12.00;99.90;;;;;;4954148;28;20461;-49
2021/05/12 09:05:09;;;;;;;7.23;3.60;;;12.20;99.90;;;;;;4951528;29;20797;-50
2021/05/12 09:07:35;;;;;;;8.35;3.70;;;12.20;99.90;;;;;;4949924;29;20489;-50
2021/05/12 09:10:02;;;;;;;7.60;3.60;;;12.30;99.90;;;;;;4951690;29;20397;-54
2021/05/12 09:12:45;;;;;;;6.90;3.65;;;12.40;99.90;;;;;;4950100;29;20562;-49
2021/05/12 09:15:15;;;;;;;7.67;3.73;;;12.60;99.90;;;;;;4950791;29;20405;-57
2021/05/12 09:17:42;;;;;;;7.80;3.83;;;12.70;99.90;;;;;;4949969;29;20512;-50
2021/05/12 09:20:29;;;;;;;6.07;3.67;;;12.90;99.90;;;;;;4951370;29;20394;-50
2021/05/12 09:23:01;;;;;;;6.35;3.50;;;12.80;99.90;;;;;;4951174;29;20405;-50
2021/05/12 09:25:32;;;;;;;8.65;3.67;;;12.90;99.90;;;;;;4950411;29;20438;-49
2021/05/12 09:28:15;;;;;;;6.70;3.78;;;12.80;99.90;;;;;;4950886;29;20931;-49
2021/05/12 09:30:43;;;;;;;10.13;4.25;;;12.70;99.90;;;;;;4933672;29;20806;-49
2021/05/12 09:33:31;;;;;;;7.20;3.45;;;12.80;99.90;;;;;;4951094;29;20473;-60
2021/05/12 09:35:58;;;;;;;8.07;4.13;;;12.80;99.90;;;;;;4951132;29;20398;-49
2021/05/12 09:38:25;;;;;;;8.68;3.65;;;13.00;99.90;;;;;;4949963;29;20858;-51
2021/05/12 09:41:10;;;;;;;9.70;3.60;;;13.00;99.90;;;;;;4951029;29;20465;-53
2021/05/12 09:43:41;;;;;;;7.57;4.20;;;13.20;99.90;;;;;;4950649;29;20881;-50
2021/05/12 09:46:17;;;;;;;9.40;4.20;;;13.50;99.90;;;;;;4950949;29;20390;-49
2021/05/12 09:49:05;;;;;;;6.57;4.18;;;13.40;99.90;;;;;;4950810;29;20484;-49
2021/05/12 09:51:35;;;;;;;6.55;3.60;;;13.30;99.90;;;;;;4950091;29;20390;-50
2021/05/12 09:54:14;;;;;;;8.10;4.20;;;13.40;99.90;;;;;;4950700;29;20872;-49
2021/05/12 09:56:39;;;;;;;7.72;3.90;;;13.20;99.90;;;;;;4950227;29;20393;-54
2021/05/12 09:59:08;;;;;;;7.20;3.77;;;13.40;99.90;;;;;;4951030;29;20417;-49
2021/05/12 10:01:51;;;;;;;6.95;3.60;;;13.30;99.90;;;;;;4957276;28;20578;-53
2021/05/12 10:04:43;;;;;;;6.30;3.83;;;13.70;99.90;;;;;;4969450;28;20408;-49
2021/05/12 10:07:16;;;;;;;6.97;3.60;;;13.60;99.90;;;;;;4970114;28;20451;-49
2021/05/12 10:09:43;;;;;;;7.60;3.90;;;13.90;99.90;;;;;;4972279;28;20507;-49
2021/05/12 10:12:12;;;;;;;8.40;4.18;;;14.10;99.90;;;;;;4974053;28;20395;-49
2021/05/12 10:14:41;;;;;;;8.02;3.80;;;14.10;99.90;;;;;;4973066;28;20489;-51
2021/05/12 10:17:12;;;;;;;9.23;3.90;;;13.90;99.90;;;;;;4973408;28;20423;-50
2021/05/12 10:19:38;;;;;;;8.20;4.20;;;14.00;99.90;;;;;;4973599;28;20501;-50
2021/05/12 10:22:05;;;;;;;9.85;4.53;;;14.20;99.90;;;;;;4973374;28;20384;-50
2021/05/12 10:24:33;;;;;;;11.10;4.40;;;14.20;99.90;;;;;;4972658;28;20550;-50
2021/05/12 10:27:02;;;;;;;8.30;4.20;;;14.30;99.90;;;;;;4973038;28;20384;-50
2021/05/12 10:29:29;;;;;;;8.60;4.28;;;14.40;99.90;;;;;;4972359;28;20508;-50
2021/05/12 10:31:55;;;;;;;7.43;4.82;;;14.50;99.90;;;;;;4973014;28;20400;-50
2021/05/12 10:34:38;;;;;;;7.73;4.33;;;14.40;99.90;;;;;;4972134;28;20885;-51
2021/05/12 10:37:26;;;;;;;7.68;4.00;;;14.40;99.90;;;;;;4973006;28;20402;-50
2021/05/12 10:40:06;;;;;;;7.65;3.78;;;14.50;99.90;;;;;;4972764;28;20391;-50
2021/05/12 10:46:03;;;;;;;8.88;4.03;;;14.60;99.90;;;;;;4972254;28;20451;-49
2021/05/12 10:48:46;;;;;;;7.03;3.80;;;14.30;99.90;;;;;;4971007;28;20525;-50
2021/05/12 10:51:22;;;;;;;7.28;4.30;;;14.30;99.90;;;;;;4972679;28;20412;-58
2021/05/12 10:54:03;;;;;;;10.23;4.05;;;14.30;99.90;;;;;;4972812;28;20906;-50
2021/05/12 10:56:41;;;;;;;10.00;4.00;;;14.30;99.90;;;;;;4972212;28;20969;-49
2021/05/12 10:59:11;;;;;;;7.35;3.83;;;14.30;99.90;;;;;;4972506;28;20415;-51
2021/05/12 11:01:42;;;;;;;12.73;4.28;;;14.30;99.90;;;;;;4963937;28;20398;-51
2021/05/12 11:04:12;;;;;;;7.82;4.10;;;14.20;99.90;;;;;;4953568;29;20920;-50
2021/05/12 11:06:38;;;;;;;7.50;4.00;;;14.30;99.90;;;;;;4952990;29;20444;-49
2021/05/12 11:09:15;;;;;;;6.72;3.63;;;14.30;99.90;;;;;;4953596;29;20456;-49
2021/05/12 11:11:43;;;;;;;7.60;4.37;;;13.40;99.90;;;;;;4953224;29;20402;-50
2021/05/12 11:14:27;;;;;;;7.90;3.88;;;14.30;99.90;;;;;;4953412;29;20417;-49
2021/05/12 11:17:03;;;;;;;9.27;4.60;;;14.40;99.90;;;;;;4953153;29;20400;-51
2021/05/12 11:19:40;;;;;;;8.70;3.72;;;14.40;99.90;;;;;;4952144;28;20394;-51
2021/05/12 11:25:28;;;;;;;7.03;3.55;;;14.50;99.90;;;;;;4953032;29;20413;-49
2021/05/12 11:33:24;;;;;;;8.93;4.00;;;14.40;99.90;;;;;;4952230;29;20403;-58
2021/05/12 11:35:58;;;;;;;7.97;4.00;;;14.60;99.90;;;;;;4952822;29;20404;-49
2021/05/12 11:38:24;;;;;;;8.50;4.70;;;14.50;99.90;;;;;;4951775;29;20381;-50
2021/05/12 11:41:17;;;;;;;8.40;3.90;;;14.50;99.90;;;;;;4952128;29;20401;-50
2021/05/12 11:44:00;;;;;;;8.05;3.78;;;14.70;99.90;;;;;;4952547;29;20414;-51
2021/05/12 11:46:27;;;;;;;8.73;3.92;;;14.50;99.90;;;;;;4951710;29;20932;-50
2021/05/12 11:48:58;;;;;;;8.52;4.28;;;14.40;99.90;;;;;;4952790;29;20878;-50
2021/05/12 11:51:44;;;;;;;9.20;4.10;;;14.40;99.90;;;;;;4951584;29;20847;-49
2021/05/12 11:54:21;;;;;;;8.82;4.07;;;14.40;99.90;;;;;;4952859;29;20397;-49
2021/05/12 11:56:49;;;;;;;6.40;3.90;;;14.50;99.90;;;;;;4952139;29;20459;-49
2021/05/12 11:59:19;;;;;;;8.13;4.10;;;14.60;99.90;;;;;;4951634;29;20449;-55
2021/05/12 12:01:45;;;;;;;6.93;3.90;;;14.70;99.90;;;;;;4960723;28;20868;-50
2021/05/12 12:04:30;;;;;;;7.50;3.87;;;14.80;99.90;;;;;;4970754;28;20472;-49
2021/05/12 12:06:56;;;;;;;7.60;4.20;;;14.90;99.90;;;;;;4971526;28;20403;-49
2021/05/12 12:09:23;;;;;;;10.82;4.30;;;14.80;99.90;;;;;;4970904;28;20377;-49
2021/05/12 12:11:49;;;;;;;8.73;4.10;;;14.40;99.90;;;;;;4971189;28;20384;-52
2021/05/12 12:14:16;;;;;;;8.10;3.95;;;14.20;99.90;;;;;;4970851;28;20392;-59
2021/05/12 12:16:46;;;;;;;7.70;3.90;;;14.50;99.90;;;;;;4970937;28;20444;-50
2021/05/12 12:19:14;;;;;;;10.45;4.63;;;14.70;99.90;;;;;;4971369;28;20380;-58
2021/05/12 12:21:41;;;;;;;9.20;4.40;;;14.80;99.90;;;;;;4970543;28;20395;-50
2021/05/12 12:24:12;;;;;;;9.60;4.50;;;15.00;99.90;;;;;;4953567;28;20412;-49
2021/05/12 12:26:41;;;;;;;8.20;4.43;;;15.10;99.90;;;;;;4970723;28;20473;-57
2021/05/12 12:29:08;;;;;;;9.37;3.80;;;15.50;99.90;;;;;;4970694;28;20431;-49
2021/05/12 12:31:44;;;;;;;9.68;4.00;;;15.20;99.90;;;;;;4969558;28;20396;-50
2021/05/12 12:34:18;;;;;;;9.65;4.22;;;14.90;99.90;;;;;;4970885;28;20479;-49
2021/05/12 12:36:46;;;;;;;7.35;3.85;;;14.90;99.90;;;;;;4971339;28;20428;-50
2021/05/12 12:39:12;;;;;;;10.52;4.63;;;15.00;99.90;;;;;;4970916;28;20462;-55
2021/05/12 12:41:38;;;;;;;9.30;4.40;;;15.20;99.90;;;;;;4970418;28;20491;-49
2021/05/12 12:44:04;;;;;;;8.07;4.10;;;15.30;99.90;;;;;;4970896;28;20428;-50
2021/05/12 12:46:30;;;;;;;10.77;4.50;;;15.40;99.90;;;;;;4969623;28;20393;-50
2021/05/12 12:48:55;;;;;;;7.67;4.13;;;15.20;99.90;;;;;;4970269;28;20471;-49
2021/05/12 12:51:40;;;;;;;9.40;4.07;;;15.20;99.90;;;;;;4969637;28;20388;-49
2021/05/12 12:54:07;;;;;;;9.30;4.90;;;15.10;99.90;;;;;;4970812;28;20897;-52
2021/05/12 12:56:33;;;;;;;7.85;4.40;;;14.80;99.90;;;;;;4970542;28;21218;-50
2021/05/12 12:59:11;;;;;;;7.78;4.32;;;15.00;99.90;;;;;;4971022;28;20426;-49
2021/05/12 13:01:40;;;;;;;9.38;4.28;;;15.10;99.90;;;;;;4961512;28;20506;-50